Time;durP1;ratioP1;P1;durP2;ratioP2;P2;SDS_P1;SDS_P2;PMS_P1;PMS_P2;Temp;Humidity;BMP_temperature;BMP_pressure;BME280_temperature;BME280_humidity;BME280_pressure;Samples;Min_cycle;Max_cycle;Signal;HPM_P1;HPM_P2
2023/03/05 00:00:05;;;;;;;23.55;10.35;;;0.10;96.90;;;;;;2069216;28;20182;-70
2023/03/05 00:01:17;;;;;;;24.33;11.13;;;-0.10;97.80;;;;;;2068964;28;20189;-70
2023/03/05 00:02:23;;;;;;;29.20;11.77;;;-0.10;98.30;;;;;;2068587;28;20669;-69
2023/03/05 00:03:29;;;;;;;37.28;12.88;;;-0.10;98.30;;;;;;2070224;28;20193;-69
2023/03/05 00:04:35;;;;;;;26.40;11.55;;;-0.10;98.60;;;;;;2076739;28;20177;-69
2023/03/05 00:05:40;;;;;;;26.25;10.98;;;-0.10;98.60;;;;;;2078188;28;20203;-67
2023/03/05 00:06:46;;;;;;;26.33;11.75;;;-0.20;98.70;;;;;;2085402;28;20176;-68
2023/03/05 00:07:52;;;;;;;24.10;11.65;;;-0.20;98.80;;;;;;2076086;28;20181;-66
2023/03/05 00:08:58;;;;;;;27.60;13.63;;;-0.20;99.00;;;;;;2076285;28;20185;-67
2023/03/05 00:10:05;;;;;;;27.98;11.07;;;-0.30;99.30;;;;;;2076163;28;20213;-67
2023/03/05 00:11:11;;;;;;;29.90;12.45;;;-0.30;99.70;;;;;;2074232;28;20192;-67
2023/03/05 00:12:17;;;;;;;25.20;11.45;;;-0.30;99.90;;;;;;2084615;28;20177;-68
2023/03/05 00:13:23;;;;;;;24.08;10.18;;;-0.30;99.90;;;;;;2084714;28;20173;-67
2023/03/05 00:14:29;;;;;;;27.20;11.30;;;-0.40;99.90;;;;;;2085528;28;20268;-67
2023/03/05 00:15:41;;;;;;;27.10;10.43;;;-0.30;99.90;;;;;;2085253;28;20212;-69
2023/03/05 00:16:46;;;;;;;23.85;10.32;;;-0.40;99.90;;;;;;2081373;28;20264;-66
2023/03/05 00:17:52;;;;;;;23.70;10.15;;;-0.40;99.90;;;;;;2075799;28;20196;-67
2023/03/05 00:19:00;;;;;;;28.42;12.75;;;-0.40;99.90;;;;;;2076033;28;20184;-68
2023/03/05 00:20:04;;;;;;;27.35;11.30;;;-0.50;99.90;;;;;;2069573;28;20190;-68
2023/03/05 00:21:19;;;;;;;26.35;10.90;;;-0.40;99.90;;;;;;2077663;28;20192;-68
2023/03/05 00:22:25;;;;;;;26.27;11.85;;;-0.50;99.90;;;;;;2085333;28;20271;-68
2023/03/05 00:23:31;;;;;;;30.33;11.45;;;-0.60;99.90;;;;;;2076617;28;20273;-68
2023/03/05 00:24:37;;;;;;;30.35;11.52;;;-0.60;99.90;;;;;;2077892;28;20181;-68
2023/03/05 00:25:44;;;;;;;28.38;11.70;;;-0.50;99.90;;;;;;2085259;28;20181;-68
2023/03/05 00:26:50;;;;;;;27.10;11.70;;;-0.60;99.90;;;;;;2077625;28;20173;-68
2023/03/05 00:27:56;;;;;;;25.90;11.57;;;-0.60;99.90;;;;;;2075944;28;20177;-68
2023/03/05 00:29:02;;;;;;;23.52;11.02;;;-0.60;99.90;;;;;;2069703;28;20174;-68
2023/03/05 00:30:05;;;;;;;26.45;11.35;;;-0.50;99.90;;;;;;2069241;28;20277;-68
2023/03/05 00:31:09;;;;;;;28.40;11.27;;;-0.50;99.90;;;;;;2077204;28;20193;-68
2023/03/05 00:32:15;;;;;;;34.83;12.38;;;-0.50;99.90;;;;;;2085315;28;20173;-69
2023/03/05 00:33:21;;;;;;;25.33;10.90;;;-0.60;99.90;;;;;;2072374;28;20221;-68
2023/03/05 00:34:27;;;;;;;31.98;11.90;;;-0.70;99.90;;;;;;2075916;28;20187;-68
2023/03/05 00:35:40;;;;;;;29.45;11.45;;;-0.60;99.90;;;;;;2069274;28;20637;-68
2023/03/05 00:36:48;;;;;;;27.58;9.85;;;-0.70;99.90;;;;;;2074205;28;20207;-68
2023/03/05 00:37:50;;;;;;;25.98;10.38;;;-0.70;99.90;;;;;;2084059;28;20812;-68
2023/03/05 00:38:56;;;;;;;31.05;12.23;;;-0.70;99.90;;;;;;2082955;28;20184;-68
2023/03/05 00:40:02;;;;;;;30.15;10.88;;;-0.70;99.90;;;;;;2072675;28;20185;-68
2023/03/05 00:41:04;;;;;;;24.70;11.05;;;-0.70;99.90;;;;;;2068351;28;20204;-68
2023/03/05 00:42:09;;;;;;;30.23;11.52;;;-0.70;99.90;;;;;;2076449;28;20597;-68
2023/03/05 00:43:15;;;;;;;30.73;11.65;;;-0.70;99.90;;;;;;2076226;28;20189;-68
2023/03/05 00:44:20;;;;;;;26.10;10.95;;;-0.70;99.90;;;;;;2076313;28;20189;-68
2023/03/05 00:45:26;;;;;;;28.40;11.18;;;-0.70;99.90;;;;;;2077636;28;20220;-68
2023/03/05 00:46:31;;;;;;;30.27;11.65;;;-0.60;99.90;;;;;;2085129;28;20184;-68
2023/03/05 00:47:37;;;;;;;25.98;10.38;;;-0.60;99.90;;;;;;2081386;28;20213;-68
2023/03/05 00:48:42;;;;;;;30.95;11.07;;;-0.70;99.90;;;;;;2084824;28;20215;-68
2023/03/05 00:49:48;;;;;;;24.45;10.75;;;-0.70;99.90;;;;;;2084805;28;20190;-68
2023/03/05 00:50:53;;;;;;;25.95;11.38;;;-0.70;99.90;;;;;;2081002;28;20231;-68
2023/03/05 00:51:59;;;;;;;26.13;11.45;;;-0.70;99.90;;;;;;2076048;28;20192;-68
2023/03/05 00:53:04;;;;;;;25.27;12.00;;;-0.70;99.90;;;;;;2067796;28;20279;-69
2023/03/05 00:54:09;;;;;;;24.80;10.90;;;-0.70;99.90;;;;;;2076694;28;20181;-68
2023/03/05 00:55:15;;;;;;;26.15;10.57;;;-0.70;99.90;;;;;;2076130;28;20204;-71
2023/03/05 00:56:21;;;;;;;27.63;10.75;;;-0.70;99.90;;;;;;2077691;28;20181;-70
2023/03/05 00:57:26;;;;;;;27.85;12.32;;;-0.70;99.90;;;;;;2076215;28;20195;-68
2023/03/05 00:58:31;;;;;;;27.38;11.27;;;-0.70;99.90;;;;;;2076277;28;20239;-67
2023/03/05 00:59:37;;;;;;;23.95;10.30;;;-0.70;99.90;;;;;;2077681;28;20243;-67
2023/03/05 01:00:42;;;;;;;27.20;10.50;;;-0.80;99.90;;;;;;2077111;28;20185;-67
2023/03/05 01:01:47;;;;;;;23.88;10.95;;;-0.70;99.90;;;;;;2081009;28;20204;-67
2023/03/05 01:02:53;;;;;;;30.40;11.40;;;-0.70;99.90;;;;;;2075882;28;20203;-68
2023/03/05 01:04:00;;;;;;;27.88;10.80;;;-0.70;99.90;;;;;;2076434;28;20182;-67
2023/03/05 01:05:05;;;;;;;26.38;11.70;;;-0.70;99.90;;;;;;2081056;28;20191;-67
2023/03/05 01:06:12;;;;;;;24.52;10.48;;;-0.70;99.90;;;;;;2075655;28;20191;-67
2023/03/05 01:07:15;;;;;;;28.25;10.52;;;-0.60;99.90;;;;;;2075788;28;20224;-68
2023/03/05 01:08:20;;;;;;;26.17;11.32;;;-0.60;99.90;;;;;;2076825;28;20650;-67
2023/03/05 01:09:26;;;;;;;23.08;10.10;;;-0.60;99.90;;;;;;2085092;28;20668;-70
2023/03/05 01:10:31;;;;;;;30.00;10.80;;;-0.60;99.90;;;;;;2084941;28;20217;-67
2023/03/05 01:11:37;;;;;;;25.58;9.63;;;-0.60;99.90;;;;;;2085054;28;20215;-68
2023/03/05 01:12:42;;;;;;;22.90;10.05;;;-0.60;99.90;;;;;;2081522;28;20570;-67
2023/03/05 01:13:48;;;;;;;23.48;9.63;;;-0.60;99.90;;;;;;2084685;28;20546;-68
2023/03/05 01:14:53;;;;;;;33.40;10.90;;;-0.60;99.90;;;;;;2084652;28;20278;-68
2023/03/05 01:15:59;;;;;;;24.80;10.90;;;-0.60;99.90;;;;;;2081028;28;20223;-70
2023/03/05 01:17:04;;;;;;;24.38;9.35;;;-0.60;99.90;;;;;;2075759;28;20586;-70
2023/03/05 01:18:09;;;;;;;22.90;11.18;;;-0.50;99.90;;;;;;2076626;28;20267;-68
2023/03/05 01:19:15;;;;;;;23.63;9.68;;;-0.50;99.90;;;;;;2084879;28;20180;-67
2023/03/05 01:20:22;;;;;;;23.48;10.57;;;-0.50;99.90;;;;;;2076143;28;20186;-67
2023/03/05 01:21:26;;;;;;;25.88;11.35;;;-0.40;99.90;;;;;;2077503;28;20297;-68
2023/03/05 01:22:31;;;;;;;20.90;9.85;;;-0.50;99.90;;;;;;2068019;28;20324;-67
2023/03/05 01:23:37;;;;;;;26.70;10.25;;;-0.50;99.90;;;;;;2067202;28;20280;-69
2023/03/05 01:24:39;;;;;;;24.83;11.80;;;-0.60;99.90;;;;;;2084494;28;20188;-67
2023/03/05 01:25:44;;;;;;;24.13;10.27;;;-0.60;99.90;;;;;;2084765;28;20181;-67
2023/03/05 01:26:50;;;;;;;25.60;10.10;;;-0.50;99.90;;;;;;2075984;28;20185;-67
2023/03/05 01:27:56;;;;;;;30.08;11.40;;;-0.50;99.90;;;;;;2077433;28;20702;-67
2023/03/05 01:29:01;;;;;;;26.30;10.68;;;-0.40;99.90;;;;;;2076127;28;20177;-68
2023/03/05 01:30:06;;;;;;;28.27;12.00;;;-0.40;99.90;;;;;;2068960;28;20184;-68
2023/03/05 01:31:10;;;;;;;26.27;11.32;;;-0.40;99.90;;;;;;2076450;28;20707;-68
2023/03/05 01:32:14;;;;;;;20.92;11.30;;;-0.40;99.90;;;;;;2084017;28;20198;-69
2023/03/05 01:33:20;;;;;;;18.98;9.18;;;-0.40;99.90;;;;;;2083960;28;20235;-68
2023/03/05 01:34:25;;;;;;;26.33;10.43;;;-0.40;99.90;;;;;;2071988;28;20235;-68
2023/03/05 01:35:31;;;;;;;24.48;10.02;;;-0.30;99.90;;;;;;2076976;28;20188;-68
2023/03/05 01:36:36;;;;;;;21.63;9.23;;;-0.30;99.90;;;;;;2084440;28;20185;-68
2023/03/05 01:37:42;;;;;;;25.58;10.45;;;-0.20;99.90;;;;;;2084477;28;20188;-68
2023/03/05 01:38:47;;;;;;;24.10;10.27;;;-0.20;99.90;;;;;;2068434;28;20230;-68
2023/03/05 01:39:52;;;;;;;21.88;11.10;;;-0.20;99.90;;;;;;2076191;28;20184;-68
2023/03/05 01:40:58;;;;;;;21.67;8.82;;;-0.30;99.90;;;;;;2077413;28;20303;-68
2023/03/05 01:42:04;;;;;;;19.90;10.00;;;-0.30;99.90;;;;;;2081407;28;20185;-68
2023/03/05 01:43:22;;;;;;;19.88;10.35;;;-0.30;99.90;;;;;;2085184;28;20188;-68
2023/03/05 01:44:29;;;;;;;25.48;10.60;;;-0.40;99.90;;;;;;2077325;28;20657;-68
2023/03/05 01:45:32;;;;;;;20.13;9.50;;;-0.40;99.90;;;;;;2070233;28;20177;-68
2023/03/05 01:46:37;;;;;;;20.85;9.50;;;-0.30;99.90;;;;;;2077730;28;20185;-68
2023/03/05 01:47:41;;;;;;;22.40;9.68;;;-0.40;99.90;;;;;;2069601;28;20190;-68
2023/03/05 01:49:03;;;;;;;22.50;9.50;;;-0.40;99.90;;;;;;2070661;28;20183;-68
2023/03/05 01:50:19;;;;;;;21.45;8.93;;;-0.40;99.90;;;;;;2080941;28;20567;-68
2023/03/05 01:51:31;;;;;;;20.83;8.55;;;-0.40;99.90;;;;;;2069204;28;20217;-68
2023/03/05 01:52:40;;;;;;;17.33;9.15;;;-0.40;99.90;;;;;;2071223;28;20182;-68
2023/03/05 01:53:46;;;;;;;17.77;8.82;;;-0.40;99.90;;;;;;2069110;28;20182;-68
2023/03/05 01:55:03;;;;;;;25.63;9.18;;;-0.40;99.90;;;;;;2073106;28;20189;-68
2023/03/05 01:56:05;;;;;;;21.83;8.45;;;-0.40;99.90;;;;;;2077656;28;20901;-68
2023/03/05 01:57:34;;;;;;;17.17;7.78;;;-0.40;99.90;;;;;;2074114;28;20184;-68
2023/03/05 01:58:40;;;;;;;18.35;8.43;;;-0.50;99.90;;;;;;2073992;28;20230;-68
2023/03/05 01:59:50;;;;;;;15.95;8.10;;;-0.50;99.90;;;;;;2061421;28;20665;-68
2023/03/05 02:00:56;;;;;;;18.17;8.45;;;-0.60;99.90;;;;;;2071189;28;20186;-68
2023/03/05 02:02:02;;;;;;;17.88;8.13;;;-0.60;99.90;;;;;;2079038;28;20182;-68
2023/03/05 02:03:10;;;;;;;20.63;8.23;;;-0.60;99.90;;;;;;2077604;28;20572;-68
2023/03/05 02:04:18;;;;;;;17.65;8.27;;;-0.60;99.90;;;;;;2075152;28;20207;-69
2023/03/05 02:05:35;;;;;;;18.85;8.55;;;-0.60;99.90;;;;;;2077308;28;20221;-68
2023/03/05 02:06:42;;;;;;;17.73;8.77;;;-0.70;99.90;;;;;;2076309;28;20184;-68
2023/03/05 02:07:47;;;;;;;21.98;8.23;;;-0.70;99.90;;;;;;2076968;28;20187;-68
2023/03/05 02:08:53;;;;;;;16.02;7.88;;;-0.70;99.90;;;;;;2076998;28;20189;-68
2023/03/05 02:09:59;;;;;;;19.13;8.38;;;-0.80;99.90;;;;;;2074334;28;20185;-68
2023/03/05 02:11:04;;;;;;;18.30;8.68;;;-0.90;99.90;;;;;;2085730;28;20216;-68
2023/03/05 02:12:11;;;;;;;20.45;9.32;;;-0.90;99.90;;;;;;2086005;28;20230;-68
2023/03/05 02:13:23;;;;;;;21.58;9.15;;;-0.80;99.90;;;;;;2081734;28;20274;-68
2023/03/05 02:14:28;;;;;;;16.55;8.27;;;-0.80;99.90;;;;;;2077135;28;20256;-68
2023/03/05 02:15:35;;;;;;;16.15;7.72;;;-0.70;99.90;;;;;;2078601;28;20228;-68
2023/03/05 02:16:42;;;;;;;18.35;8.13;;;-0.70;99.90;;;;;;2077540;28;20177;-68
2023/03/05 02:17:48;;;;;;;19.33;8.82;;;-0.50;99.90;;;;;;2070598;28;20186;-68
2023/03/05 02:18:53;;;;;;;17.33;7.70;;;-0.50;99.90;;;;;;2070777;28;20178;-68
2023/03/05 02:20:12;;;;;;;17.23;9.13;;;-0.50;99.90;;;;;;2077195;28;20300;-68
2023/03/05 02:21:29;;;;;;;16.27;8.23;;;-0.50;99.90;;;;;;2071354;28;20217;-69
2023/03/05 02:22:32;;;;;;;14.90;7.70;;;-0.60;99.90;;;;;;2077348;28;20713;-68
2023/03/05 02:23:38;;;;;;;16.10;8.07;;;-0.60;99.90;;;;;;2078306;28;20202;-69
2023/03/05 02:24:43;;;;;;;19.75;8.63;;;-0.60;99.90;;;;;;2085814;28;20184;-68
2023/03/05 02:25:49;;;;;;;16.95;8.38;;;-0.60;99.90;;;;;;2078118;28;20188;-68
2023/03/05 02:26:54;;;;;;;19.27;7.95;;;-0.60;99.90;;;;;;2076914;28;20185;-68
2023/03/05 02:28:14;;;;;;;18.33;8.73;;;-0.60;99.90;;;;;;2074505;28;20180;-69
2023/03/05 02:29:20;;;;;;;18.60;8.50;;;-0.70;99.90;;;;;;2068574;28;20228;-68
2023/03/05 02:30:25;;;;;;;15.90;8.20;;;-0.80;99.90;;;;;;2063803;28;20194;-69
2023/03/05 02:31:31;;;;;;;18.35;7.57;;;-0.70;99.90;;;;;;2078019;28;20212;-68
2023/03/05 02:32:36;;;;;;;19.48;8.82;;;-0.60;99.90;;;;;;2085776;28;20232;-68
2023/03/05 02:33:42;;;;;;;15.35;6.90;;;-0.50;99.90;;;;;;2082445;28;20187;-68
2023/03/05 02:34:47;;;;;;;18.83;8.38;;;-0.50;99.90;;;;;;2076866;28;20173;-68
2023/03/05 02:35:52;;;;;;;15.52;7.60;;;-0.40;99.90;;;;;;2062148;28;20545;-68
2023/03/05 02:36:58;;;;;;;18.15;8.23;;;-0.20;99.90;;;;;;2069502;28;20174;-69
2023/03/05 02:38:03;;;;;;;19.10;7.43;;;-0.20;99.90;;;;;;2082937;28;20275;-68
2023/03/05 02:39:05;;;;;;;14.90;7.78;;;-0.10;99.80;;;;;;2076778;28;20201;-69
2023/03/05 02:40:11;;;;;;;19.00;7.38;;;0.00;99.70;;;;;;2077502;28;20173;-69
2023/03/05 02:41:15;;;;;;;18.35;8.25;;;-0.10;99.70;;;;;;2081624;28;20208;-69
2023/03/05 02:42:21;;;;;;;18.38;7.93;;;-0.10;99.70;;;;;;2085730;28;20180;-68
2023/03/05 02:43:26;;;;;;;15.25;7.50;;;-0.20;99.90;;;;;;2076896;28;20177;-68
2023/03/05 02:44:32;;;;;;;16.63;7.75;;;-0.30;99.90;;;;;;2074418;28;20169;-68
2023/03/05 02:45:38;;;;;;;15.40;6.88;;;-0.30;99.90;;;;;;2085020;28;20215;-69
2023/03/05 02:46:43;;;;;;;13.25;6.50;;;-0.30;99.90;;;;;;2076815;28;20174;-69
2023/03/05 02:47:48;;;;;;;16.02;8.18;;;-0.30;99.90;;;;;;2069889;28;20213;-68
2023/03/05 02:48:54;;;;;;;17.92;8.20;;;-0.20;99.90;;;;;;2078691;28;20709;-68
2023/03/05 02:49:59;;;;;;;16.45;7.82;;;-0.10;99.90;;;;;;2085884;28;20557;-68
2023/03/05 02:51:06;;;;;;;15.30;7.35;;;-0.10;99.90;;;;;;2077011;28;20689;-69
2023/03/05 02:52:09;;;;;;;15.50;7.68;;;0.00;99.70;;;;;;2066378;28;20189;-68
2023/03/05 02:53:15;;;;;;;13.15;6.97;;;0.00;99.40;;;;;;2068719;28;20237;-69
2023/03/05 02:54:21;;;;;;;17.08;8.82;;;0.10;99.20;;;;;;2076277;28;20188;-69
2023/03/05 02:55:26;;;;;;;15.45;7.47;;;0.10;98.90;;;;;;2081024;28;20203;-69
2023/03/05 02:56:32;;;;;;;16.92;7.85;;;0.30;99.10;;;;;;2060769;28;20191;-68
2023/03/05 02:57:37;;;;;;;15.45;7.43;;;0.30;98.40;;;;;;2067734;28;20194;-69
2023/03/05 02:58:42;;;;;;;15.60;7.30;;;0.30;98.50;;;;;;2070411;28;20242;-68
2023/03/05 02:59:48;;;;;;;19.02;8.35;;;0.30;98.50;;;;;;2076621;28;20181;-69
2023/03/05 03:00:53;;;;;;;15.85;7.40;;;0.30;98.40;;;;;;2078096;28;20181;-68
2023/03/05 03:01:59;;;;;;;17.92;8.18;;;0.30;98.30;;;;;;2076652;28;20196;-68
2023/03/05 03:03:04;;;;;;;17.63;7.50;;;0.30;98.20;;;;;;2077374;28;20196;-68
2023/03/05 03:04:09;;;;;;;16.25;7.47;;;0.30;98.30;;;;;;2085463;28;20188;-68
2023/03/05 03:05:15;;;;;;;21.00;8.25;;;0.40;98.00;;;;;;2085487;28;20185;-69
2023/03/05 03:06:20;;;;;;;15.25;7.18;;;0.40;98.00;;;;;;2081895;28;20188;-68
2023/03/05 03:07:26;;;;;;;16.20;8.18;;;0.40;97.80;;;;;;2085472;28;20224;-68
2023/03/05 03:08:31;;;;;;;16.30;6.85;;;0.40;97.70;;;;;;2076353;28;20217;-68
2023/03/05 03:09:37;;;;;;;23.77;8.55;;;0.40;97.80;;;;;;2073460;28;20285;-68
2023/03/05 03:10:42;;;;;;;20.40;10.55;;;0.30;98.10;;;;;;2068925;28;20259;-68
2023/03/05 03:11:48;;;;;;;18.13;9.23;;;0.30;98.20;;;;;;2069996;28;20210;-68
2023/03/05 03:12:53;;;;;;;16.92;7.43;;;0.20;98.50;;;;;;2069676;28;20181;-68
2023/03/05 03:13:59;;;;;;;17.35;8.30;;;0.30;98.60;;;;;;2078513;28;20191;-68
2023/03/05 03:15:06;;;;;;;18.73;8.73;;;0.40;98.30;;;;;;2085563;28;20264;-68
2023/03/05 03:16:13;;;;;;;20.27;7.53;;;0.40;98.10;;;;;;2085836;28;20601;-68
2023/03/05 03:17:18;;;;;;;16.05;7.80;;;0.50;97.80;;;;;;2073306;28;20256;-68
2023/03/05 03:18:23;;;;;;;14.93;7.30;;;0.50;97.70;;;;;;2069239;28;20247;-68
2023/03/05 03:19:28;;;;;;;16.17;7.28;;;0.40;97.60;;;;;;2077713;28;20306;-68
2023/03/05 03:20:38;;;;;;;12.13;6.20;;;0.50;97.50;;;;;;2073264;28;20223;-68
2023/03/05 03:21:43;;;;;;;15.15;8.30;;;0.50;97.50;;;;;;2078464;28;20292;-68
2023/03/05 03:22:49;;;;;;;16.90;7.32;;;0.50;97.50;;;;;;2084867;28;20180;-68
2023/03/05 03:23:54;;;;;;;14.65;7.13;;;0.50;97.40;;;;;;2073288;28;20181;-68
2023/03/05 03:25:00;;;;;;;16.10;7.20;;;0.50;97.90;;;;;;2077812;28;20208;-68
2023/03/05 03:26:04;;;;;;;15.32;6.95;;;0.50;97.40;;;;;;2085260;28;20193;-68
2023/03/05 03:27:10;;;;;;;14.00;7.88;;;0.50;97.60;;;;;;2081580;28;20223;-68
2023/03/05 03:28:15;;;;;;;16.33;7.57;;;0.40;97.60;;;;;;2085064;28;20184;-68
2023/03/05 03:29:20;;;;;;;17.15;7.15;;;0.50;97.70;;;;;;2085287;28;20180;-68
2023/03/05 03:30:26;;;;;;;17.17;7.85;;;0.50;97.40;;;;;;2073085;28;20192;-68
2023/03/05 03:31:31;;;;;;;15.43;7.10;;;0.50;97.30;;;;;;2078870;28;20305;-68
2023/03/05 03:32:37;;;;;;;12.48;6.13;;;0.50;97.40;;;;;;2089291;28;20501;-68
2023/03/05 03:33:42;;;;;;;15.02;7.25;;;0.50;97.30;;;;;;2089513;28;20180;-68
2023/03/05 03:34:48;;;;;;;17.58;7.72;;;0.50;97.30;;;;;;2073219;28;20213;-68
2023/03/05 03:35:53;;;;;;;13.02;6.43;;;0.50;97.20;;;;;;2077934;28;20227;-68
2023/03/05 03:36:58;;;;;;;12.18;6.82;;;0.50;97.30;;;;;;2085250;28;20184;-68
2023/03/05 03:38:04;;;;;;;17.60;7.60;;;0.40;97.60;;;;;;2065750;28;20179;-68
2023/03/05 03:39:10;;;;;;;12.93;6.95;;;0.40;97.50;;;;;;2076895;28;20181;-69
2023/03/05 03:40:15;;;;;;;18.20;7.55;;;0.50;97.50;;;;;;2078314;28;20253;-68
2023/03/05 03:41:21;;;;;;;12.68;6.50;;;0.50;97.40;;;;;;2085248;28;20227;-68
2023/03/05 03:42:26;;;;;;;13.48;7.18;;;0.50;97.30;;;;;;2076453;28;20177;-68
2023/03/05 03:43:32;;;;;;;15.32;6.90;;;0.50;97.50;;;;;;2077792;28;20257;-68
2023/03/05 03:44:37;;;;;;;15.27;7.22;;;0.50;97.80;;;;;;2076389;28;20628;-68
2023/03/05 03:45:43;;;;;;;16.23;7.50;;;0.50;97.60;;;;;;2078075;28;20667;-68
2023/03/05 03:46:50;;;;;;;14.38;7.10;;;0.50;97.80;;;;;;2073500;28;20563;-68
2023/03/05 03:47:54;;;;;;;15.50;6.53;;;0.60;97.90;;;;;;2066896;28;20186;-69
2023/03/05 03:49:00;;;;;;;11.45;6.10;;;0.50;97.90;;;;;;2073238;28;20180;-68
2023/03/05 03:50:05;;;;;;;13.93;7.47;;;0.60;97.80;;;;;;2076781;28;20185;-68
2023/03/05 03:51:09;;;;;;;11.85;6.75;;;0.60;97.70;;;;;;2077910;28;20251;-68
2023/03/05 03:52:15;;;;;;;11.48;6.15;;;0.60;97.30;;;;;;2072766;28;20259;-68
2023/03/05 03:53:20;;;;;;;14.30;6.78;;;0.70;97.20;;;;;;2077645;28;20223;-68
2023/03/05 03:54:26;;;;;;;13.05;6.68;;;0.60;97.30;;;;;;2076345;28;20181;-68
2023/03/05 03:55:32;;;;;;;14.00;6.03;;;0.60;97.40;;;;;;2077659;28;20709;-68
2023/03/05 03:56:37;;;;;;;14.68;6.45;;;0.70;97.50;;;;;;2076784;28;20249;-68
2023/03/05 03:57:42;;;;;;;12.07;5.80;;;0.60;97.30;;;;;;2077920;28;20188;-68
2023/03/05 03:58:52;;;;;;;14.40;6.38;;;0.50;97.80;;;;;;2085770;28;20770;-69
2023/03/05 03:59:56;;;;;;;12.80;5.80;;;0.50;97.80;;;;;;2073323;28;20188;-68
2023/03/05 04:01:02;;;;;;;12.80;6.55;;;0.50;97.90;;;;;;2077376;28;20224;-68
2023/03/05 04:02:04;;;;;;;12.88;6.20;;;0.50;97.70;;;;;;2084986;28;20730;-68
2023/03/05 04:03:09;;;;;;;12.80;6.28;;;0.60;97.80;;;;;;2081306;28;20187;-68
2023/03/05 04:04:15;;;;;;;12.90;6.93;;;0.50;98.50;;;;;;2084946;28;20196;-68
2023/03/05 04:05:20;;;;;;;13.15;8.13;;;0.40;98.80;;;;;;2085069;28;20264;-68
2023/03/05 04:06:26;;;;;;;11.45;5.80;;;0.30;99.30;;;;;;2076103;28;20193;-68
2023/03/05 04:07:31;;;;;;;12.45;6.13;;;0.30;99.60;;;;;;2069920;28;20190;-68
2023/03/05 04:08:37;;;;;;;11.75;5.85;;;0.30;99.50;;;;;;2077791;28;20182;-68
2023/03/05 04:09:42;;;;;;;13.50;5.53;;;0.40;99.10;;;;;;2085510;28;20204;-68
2023/03/05 04:10:48;;;;;;;16.20;5.93;;;0.40;98.90;;;;;;2081652;28;20706;-69
2023/03/05 04:11:53;;;;;;;12.43;5.18;;;0.40;98.90;;;;;;2084857;28;20203;-69
2023/03/05 04:12:58;;;;;;;10.43;5.57;;;0.50;98.40;;;;;;2085039;28;20173;-68
2023/03/05 04:14:04;;;;;;;13.02;5.85;;;0.50;98.30;;;;;;2072682;28;20248;-68
2023/03/05 04:15:10;;;;;;;13.15;6.15;;;0.50;98.20;;;;;;2076640;28;20181;-68
2023/03/05 04:16:15;;;;;;;12.57;5.93;;;0.60;98.30;;;;;;2076139;28;20178;-68
2023/03/05 04:17:21;;;;;;;13.38;5.57;;;0.70;98.10;;;;;;2073806;28;20177;-68
2023/03/05 04:18:26;;;;;;;11.38;5.82;;;0.80;97.70;;;;;;2084680;28;20180;-68
2023/03/05 04:19:32;;;;;;;8.75;5.40;;;0.80;97.30;;;;;;2085026;28;20188;-68
2023/03/05 04:20:37;;;;;;;9.80;5.72;;;0.80;97.30;;;;;;2085023;28;20196;-68
2023/03/05 04:21:43;;;;;;;12.98;5.65;;;0.80;97.30;;;;;;2064204;28;20254;-68
2023/03/05 04:22:48;;;;;;;10.55;5.53;;;0.90;97.10;;;;;;2067292;28;20221;-68
2023/03/05 04:23:53;;;;;;;9.35;5.50;;;0.80;97.30;;;;;;2076503;28;20725;-68
2023/03/05 04:24:59;;;;;;;11.68;6.05;;;0.80;97.50;;;;;;2074976;28;20208;-68
2023/03/05 04:26:05;;;;;;;10.48;4.97;;;0.90;98.00;;;;;;2085355;28;20575;-68
2023/03/05 04:27:10;;;;;;;10.15;4.72;;;0.90;97.30;;;;;;2076424;28;20182;-68
2023/03/05 04:28:16;;;;;;;9.73;5.10;;;1.00;96.80;;;;;;2064059;28;20193;-68
2023/03/05 04:29:22;;;;;;;7.55;4.45;;;1.00;96.60;;;;;;2050772;28;20204;-68
2023/03/05 04:30:27;;;;;;;9.40;5.25;;;1.00;96.50;;;;;;2057733;28;20207;-68
2023/03/05 04:31:33;;;;;;;11.40;5.13;;;1.10;96.10;;;;;;2076883;28;20202;-68
2023/03/05 04:32:38;;;;;;;9.95;5.10;;;1.10;96.40;;;;;;2076397;28;20188;-68
2023/03/05 04:33:43;;;;;;;10.13;5.15;;;1.00;96.70;;;;;;2077674;28;20239;-68
2023/03/05 04:34:49;;;;;;;9.88;5.25;;;1.00;96.80;;;;;;2084726;28;20183;-68
2023/03/05 04:35:55;;;;;;;10.60;4.70;;;0.90;96.80;;;;;;2084752;28;20180;-68
2023/03/05 04:37:00;;;;;;;10.25;5.30;;;0.90;96.80;;;;;;2084831;28;20186;-68
2023/03/05 04:38:04;;;;;;;9.38;5.80;;;1.00;96.60;;;;;;2075965;28;20257;-68
2023/03/05 04:39:09;;;;;;;10.45;5.13;;;0.90;96.80;;;;;;2073103;28;20734;-68
2023/03/05 04:40:15;;;;;;;10.35;5.47;;;1.00;96.80;;;;;;2085271;28;20586;-67
2023/03/05 04:41:20;;;;;;;13.10;6.07;;;1.10;96.70;;;;;;2076447;28;20201;-68
2023/03/05 04:42:26;;;;;;;9.55;5.40;;;1.10;96.60;;;;;;2065852;28;20186;-68
2023/03/05 04:43:31;;;;;;;8.48;4.70;;;1.10;96.50;;;;;;2076386;28;20673;-68
2023/03/05 04:44:37;;;;;;;11.27;5.60;;;1.10;96.60;;;;;;2084939;28;20195;-68
2023/03/05 04:45:43;;;;;;;9.40;5.25;;;1.10;96.50;;;;;;2085058;28;20181;-67
2023/03/05 04:46:48;;;;;;;10.70;5.63;;;1.10;96.40;;;;;;2076522;28;20658;-67
2023/03/05 04:47:53;;;;;;;9.35;4.90;;;1.10;96.20;;;;;;2073193;28;20200;-67
2023/03/05 04:48:59;;;;;;;9.95;5.40;;;1.10;96.30;;;;;;2086791;28;20187;-68
2023/03/05 04:50:06;;;;;;;8.77;5.10;;;1.00;96.20;;;;;;2085183;28;20279;-68
2023/03/05 04:51:09;;;;;;;10.15;5.57;;;1.00;96.40;;;;;;2081309;28;20203;-67
2023/03/05 04:52:15;;;;;;;10.13;5.25;;;1.00;96.50;;;;;;2084549;28;20552;-67
2023/03/05 04:53:20;;;;;;;10.98;5.60;;;1.00;96.50;;;;;;2067883;28;20256;-67
2023/03/05 04:54:27;;;;;;;10.10;6.15;;;1.10;96.60;;;;;;2070178;28;20186;-68
2023/03/05 04:55:31;;;;;;;14.93;5.68;;;1.00;96.70;;;;;;2076384;28;20206;-67
2023/03/05 04:56:37;;;;;;;8.55;4.75;;;1.00;97.00;;;;;;2073654;28;20315;-68
2023/03/05 04:57:43;;;;;;;11.25;5.00;;;1.00;96.90;;;;;;2075617;28;20180;-67
2023/03/05 04:58:48;;;;;;;9.27;5.20;;;1.10;96.70;;;;;;2068877;28;20183;-68
2023/03/05 04:59:53;;;;;;;9.65;5.00;;;1.20;96.60;;;;;;2073870;28;20594;-67
2023/03/05 05:01:03;;;;;;;11.45;4.82;;;1.10;96.80;;;;;;2084458;28;20184;-68
2023/03/05 05:02:05;;;;;;;10.93;5.60;;;0.90;97.60;;;;;;2075880;28;20205;-70
2023/03/05 05:03:09;;;;;;;8.98;5.35;;;0.70;98.20;;;;;;2068932;28;20189;-70
2023/03/05 05:04:15;;;;;;;11.75;5.85;;;0.70;98.30;;;;;;2069481;28;20201;-68
2023/03/05 05:05:24;;;;;;;8.32;5.15;;;0.80;98.40;;;;;;2072768;28;20184;-67
2023/03/05 05:06:27;;;;;;;9.45;5.53;;;0.80;98.60;;;;;;2075811;28;20188;-67
2023/03/05 05:07:32;;;;;;;9.68;5.60;;;0.80;98.40;;;;;;2076760;28;20236;-68
2023/03/05 05:08:38;;;;;;;8.73;5.28;;;0.80;97.90;;;;;;2081121;28;20191;-68
2023/03/05 05:09:43;;;;;;;10.20;5.78;;;0.90;97.60;;;;;;2084568;28;20184;-67
2023/03/05 05:11:05;;;;;;;9.80;5.80;;;0.90;97.40;;;;;;2077139;28;20200;-67
2023/03/05 05:12:09;;;;;;;8.90;4.78;;;0.80;97.70;;;;;;2068160;28;20197;-67
2023/03/05 05:13:15;;;;;;;9.85;5.80;;;0.90;98.10;;;;;;2069542;28;20666;-68
2023/03/05 05:14:21;;;;;;;9.85;5.65;;;0.90;98.10;;;;;;2084615;28;20657;-67
2023/03/05 05:15:26;;;;;;;11.93;5.25;;;0.90;98.00;;;;;;2084296;28;20782;-67
2023/03/05 05:16:31;;;;;;;8.45;4.28;;;1.00;97.60;;;;;;2084707;28;20184;-68
2023/03/05 05:17:37;;;;;;;9.50;5.25;;;1.10;97.40;;;;;;2076020;28;20185;-68
2023/03/05 05:18:42;;;;;;;10.10;5.32;;;1.10;97.30;;;;;;2058930;28;20221;-67
2023/03/05 05:19:47;;;;;;;8.90;4.82;;;1.10;97.20;;;;;;2070914;28;20177;-69
2023/03/05 05:20:53;;;;;;;8.35;4.68;;;1.20;97.10;;;;;;2077215;28;20209;-68
2023/03/05 05:22:00;;;;;;;8.25;5.45;;;1.30;96.90;;;;;;2079482;28;20205;-68
2023/03/05 05:23:04;;;;;;;10.57;5.47;;;1.40;96.70;;;;;;2077930;28;20563;-69
2023/03/05 05:24:09;;;;;;;8.85;5.38;;;1.40;96.20;;;;;;2078688;28;20197;-69
2023/03/05 05:25:15;;;;;;;11.32;5.30;;;1.40;96.00;;;;;;2086036;28;20226;-69
2023/03/05 05:26:20;;;;;;;10.40;5.38;;;1.40;96.10;;;;;;2086095;28;20189;-69
2023/03/05 05:27:26;;;;;;;9.75;5.07;;;1.40;95.80;;;;;;2082670;28;20176;-68
2023/03/05 05:28:32;;;;;;;12.23;5.43;;;1.30;95.70;;;;;;2077216;28;20182;-69
2023/03/05 05:29:37;;;;;;;11.40;4.97;;;1.30;95.80;;;;;;2070341;28;20666;-69
2023/03/05 05:30:42;;;;;;;9.52;4.85;;;1.20;95.80;;;;;;2069691;28;20201;-69
2023/03/05 05:31:48;;;;;;;10.63;5.13;;;1.30;95.90;;;;;;2077208;28;20596;-69
2023/03/05 05:32:53;;;;;;;11.18;5.20;;;1.30;95.90;;;;;;2085453;28;20559;-68
2023/03/05 05:33:58;;;;;;;10.07;5.10;;;1.40;95.60;;;;;;2088121;28;20209;-68
2023/03/05 05:35:05;;;;;;;10.30;5.25;;;1.40;95.40;;;;;;2076915;28;20193;-68
2023/03/05 05:36:13;;;;;;;7.40;4.68;;;1.50;95.40;;;;;;2077715;28;20276;-69
2023/03/05 05:37:16;;;;;;;9.00;5.20;;;1.50;95.50;;;;;;2085503;28;20684;-68
2023/03/05 05:38:22;;;;;;;8.35;5.03;;;1.50;95.60;;;;;;2085323;28;20692;-68
2023/03/05 05:39:27;;;;;;;10.15;5.18;;;1.40;95.50;;;;;;2086720;28;20223;-69
2023/03/05 05:40:33;;;;;;;10.93;5.28;;;1.50;95.30;;;;;;2086462;28;20236;-69